sensor_id;sensor_type;location;lat;lon;timestamp;P1;durP1;ratioP1;P2;durP2;ratioP2
63201;SDS011;49296;48.188;11.566;2023-05-31T00:02:05;6.20;;;3.90;;
63201;SDS011;49296;48.188;11.566;2023-05-31T00:04:32;8.52;;;3.45;;
63201;SDS011;49296;48.188;11.566;2023-05-31T00:06:59;6.40;;;3.28;;
63201;SDS011;49296;48.188;11.566;2023-05-31T00:09:26;5.35;;;2.92;;
63201;SDS011;49296;48.188;11.566;2023-05-31T00:11:53;5.65;;;2.95;;
63201;SDS011;49296;48.188;11.566;2023-05-31T00:14:21;5.43;;;3.00;;
63201;SDS011;49296;48.188;11.566;2023-05-31T00:16:47;4.55;;;2.95;;
63201;SDS011;49296;48.188;11.566;2023-05-31T00:19:14;6.50;;;3.22;;
63201;SDS011;49296;48.188;11.566;2023-05-31T00:21:41;5.00;;;3.20;;
63201;SDS011;49296;48.188;11.566;2023-05-31T00:24:09;12.23;;;4.07;;
63201;SDS011;49296;48.188;11.566;2023-05-31T00:26:36;9.68;;;2.97;;
63201;SDS011;49296;48.188;11.566;2023-05-31T00:29:03;7.13;;;3.67;;
63201;SDS011;49296;48.188;11.566;2023-05-31T00:31:31;5.78;;;3.17;;
63201;SDS011;49296;48.188;11.566;2023-05-31T00:33:58;6.88;;;3.15;;
63201;SDS011;49296;48.188;11.566;2023-05-31T00:36:24;9.63;;;3.13;;
63201;SDS011;49296;48.188;11.566;2023-05-31T00:38:51;6.85;;;2.85;;
63201;SDS011;49296;48.188;11.566;2023-05-31T00:41:17;5.60;;;2.53;;
63201;SDS011;49296;48.188;11.566;2023-05-31T00:43:45;5.10;;;2.42;;
63201;SDS011;49296;48.188;11.566;2023-05-31T00:46:19;5.22;;;3.00;;
63201;SDS011;49296;48.188;11.566;2023-05-31T00:48:53;6.88;;;2.90;;
63201;SDS011;49296;48.188;11.566;2023-05-31T00:51:20;5.20;;;3.00;;
63201;SDS011;49296;48.188;11.566;2023-05-31T00:53:47;5.15;;;2.80;;
63201;SDS011;49296;48.188;11.566;2023-05-31T00:56:14;6.22;;;2.80;;
63201;SDS011;49296;48.188;11.566;2023-05-31T00:58:41;5.65;;;2.72;;
63201;SDS011;49296;48.188;11.566;2023-05-31T01:01:10;5.72;;;2.58;;
63201;SDS011;49296;48.188;11.566;2023-05-31T01:03:39;6.03;;;3.58;;
63201;SDS011;49296;48.188;11.566;2023-05-31T01:06:07;5.72;;;2.70;;
63201;SDS011;49296;48.188;11.566;2023-05-31T01:08:34;6.18;;;2.67;;
63201;SDS011;49296;48.188;11.566;2023-05-31T01:11:02;5.70;;;2.50;;
63201;SDS011;49296;48.188;11.566;2023-05-31T01:13:37;5.15;;;2.80;;
63201;SDS011;49296;48.188;11.566;2023-05-31T01:16:10;5.57;;;2.70;;
63201;SDS011;49296;48.188;11.566;2023-05-31T01:18:40;6.05;;;2.70;;
63201;SDS011;49296;48.188;11.566;2023-05-31T01:21:13;4.75;;;2.30;;
63201;SDS011;49296;48.188;11.566;2023-05-31T01:23:46;4.93;;;2.25;;
63201;SDS011;49296;48.188;11.566;2023-05-31T01:26:31;5.25;;;2.65;;
63201;SDS011;49296;48.188;11.566;2023-05-31T01:29:03;5.60;;;2.67;;
63201;SDS011;49296;48.188;11.566;2023-05-31T01:34:00;4.70;;;2.45;;
63201;SDS011;49296;48.188;11.566;2023-05-31T01:36:28;5.60;;;2.50;;
63201;SDS011;49296;48.188;11.566;2023-05-31T01:38:56;6.05;;;2.47;;
63201;SDS011;49296;48.188;11.566;2023-05-31T01:41:23;6.03;;;2.85;;
63201;SDS011;49296;48.188;11.566;2023-05-31T01:43:52;5.82;;;2.78;;
63201;SDS011;49296;48.188;11.566;2023-05-31T01:46:19;7.82;;;2.90;;
63201;SDS011;49296;48.188;11.566;2023-05-31T01:48:46;4.75;;;2.70;;
63201;SDS011;49296;48.188;11.566;2023-05-31T01:51:14;6.45;;;3.00;;
63201;SDS011;49296;48.188;11.566;2023-05-31T01:53:41;5.50;;;2.70;;
63201;SDS011;49296;48.188;11.566;2023-05-31T01:56:08;4.97;;;2.45;;
63201;SDS011;49296;48.188;11.566;2023-05-31T01:58:36;5.97;;;2.58;;
63201;SDS011;49296;48.188;11.566;2023-05-31T02:01:08;5.22;;;2.40;;
63201;SDS011;49296;48.188;11.566;2023-05-31T02:03:37;6.22;;;2.85;;
63201;SDS011;49296;48.188;11.566;2023-05-31T02:06:05;4.93;;;2.55;;
63201;SDS011;49296;48.188;11.566;2023-05-31T02:08:31;5.20;;;2.40;;
63201;SDS011;49296;48.188;11.566;2023-05-31T02:10:58;4.47;;;2.50;;
63201;SDS011;49296;48.188;11.566;2023-05-31T02:13:26;6.97;;;3.13;;
63201;SDS011;49296;48.188;11.566;2023-05-31T02:15:54;4.55;;;2.38;;
63201;SDS011;49296;48.188;11.566;2023-05-31T02:18:22;6.63;;;3.03;;
63201;SDS011;49296;48.188;11.566;2023-05-31T02:23:18;8.02;;;2.85;;
63201;SDS011;49296;48.188;11.566;2023-05-31T02:25:44;5.70;;;2.47;;
63201;SDS011;49296;48.188;11.566;2023-05-31T02:28:12;5.72;;;2.53;;
63201;SDS011;49296;48.188;11.566;2023-05-31T02:30:39;4.93;;;2.30;;
63201;SDS011;49296;48.188;11.566;2023-05-31T02:33:06;5.15;;;2.45;;
63201;SDS011;49296;48.188;11.566;2023-05-31T02:35:34;5.97;;;2.50;;
63201;SDS011;49296;48.188;11.566;2023-05-31T02:38:01;6.30;;;2.35;;
63201;SDS011;49296;48.188;11.566;2023-05-31T02:40:28;5.18;;;2.67;;
63201;SDS011;49296;48.188;11.566;2023-05-31T02:42:54;6.90;;;3.47;;
63201;SDS011;49296;48.188;11.566;2023-05-31T02:45:21;6.88;;;3.85;;
63201;SDS011;49296;48.188;11.566;2023-05-31T02:47:47;6.10;;;2.83;;
63201;SDS011;49296;48.188;11.566;2023-05-31T02:50:14;6.13;;;2.10;;
63201;SDS011;49296;48.188;11.566;2023-05-31T02:52:42;5.10;;;2.67;;
63201;SDS011;49296;48.188;11.566;2023-05-31T02:55:09;5.40;;;2.75;;
63201;SDS011;49296;48.188;11.566;2023-05-31T02:57:35;4.88;;;2.15;;
63201;SDS011;49296;48.188;11.566;2023-05-31T03:00:02;4.35;;;2.10;;
63201;SDS011;49296;48.188;11.566;2023-05-31T03:02:36;5.10;;;2.10;;
63201;SDS011;49296;48.188;11.566;2023-05-31T03:05:03;6.57;;;2.67;;
63201;SDS011;49296;48.188;11.566;2023-05-31T03:07:30;7.35;;;2.55;;
63201;SDS011;49296;48.188;11.566;2023-05-31T03:09:58;6.00;;;2.83;;
63201;SDS011;49296;48.188;11.566;2023-05-31T03:12:25;6.47;;;2.95;;
63201;SDS011;49296;48.188;11.566;2023-05-31T03:14:52;5.47;;;2.33;;
63201;SDS011;49296;48.188;11.566;2023-05-31T03:17:19;4.90;;;2.47;;
63201;SDS011;49296;48.188;11.566;2023-05-31T03:19:46;6.40;;;2.60;;
63201;SDS011;49296;48.188;11.566;2023-05-31T03:22:13;4.10;;;2.30;;
63201;SDS011;49296;48.188;11.566;2023-05-31T03:24:39;5.13;;;2.40;;
63201;SDS011;49296;48.188;11.566;2023-05-31T03:27:07;4.90;;;2.38;;
63201;SDS011;49296;48.188;11.566;2023-05-31T03:29:36;6.68;;;2.60;;
63201;SDS011;49296;48.188;11.566;2023-05-31T03:32:04;4.95;;;2.50;;
63201;SDS011;49296;48.188;11.566;2023-05-31T03:34:31;4.75;;;2.63;;
63201;SDS011;49296;48.188;11.566;2023-05-31T03:36:58;5.55;;;2.78;;
63201;SDS011;49296;48.188;11.566;2023-05-31T03:39:24;5.30;;;2.30;;
63201;SDS011;49296;48.188;11.566;2023-05-31T03:41:51;5.60;;;2.60;;
63201;SDS011;49296;48.188;11.566;2023-05-31T03:44:19;5.38;;;2.50;;
63201;SDS011;49296;48.188;11.566;2023-05-31T03:46:45;6.30;;;2.72;;
63201;SDS011;49296;48.188;11.566;2023-05-31T03:49:13;6.97;;;2.78;;
63201;SDS011;49296;48.188;11.566;2023-05-31T03:51:39;4.97;;;2.85;;
63201;SDS011;49296;48.188;11.566;2023-05-31T03:54:06;5.68;;;2.40;;
63201;SDS011;49296;48.188;11.566;2023-05-31T03:56:32;7.80;;;3.10;;
63201;SDS011;49296;48.188;11.566;2023-05-31T03:58:59;5.43;;;2.70;;
63201;SDS011;49296;48.188;11.566;2023-05-31T04:01:27;6.13;;;2.58;;
63201;SDS011;49296;48.188;11.566;2023-05-31T04:03:54;5.05;;;2.97;;
63201;SDS011;49296;48.188;11.566;2023-05-31T04:06:20;7.95;;;2.70;;
63201;SDS011;49296;48.188;11.566;2023-05-31T04:08:47;5.78;;;2.72;;
63201;SDS011;49296;48.188;11.566;2023-05-31T04:11:14;6.70;;;2.60;;
63201;SDS011;49296;48.188;11.566;2023-05-31T04:13:41;5.68;;;2.92;;
63201;SDS011;49296;48.188;11.566;2023-05-31T04:16:07;5.60;;;2.60;;
63201;SDS011;49296;48.188;11.566;2023-05-31T04:18:35;7.53;;;3.08;;
63201;SDS011;49296;48.188;11.566;2023-05-31T04:21:02;7.07;;;2.65;;
63201;SDS011;49296;48.188;11.566;2023-05-31T04:23:29;5.43;;;2.40;;
63201;SDS011;49296;48.188;11.566;2023-05-31T04:25:55;6.65;;;2.90;;
63201;SDS011;49296;48.188;11.566;2023-05-31T04:28:22;6.78;;;2.83;;
63201;SDS011;49296;48.188;11.566;2023-05-31T04:30:49;6.47;;;2.83;;
63201;SDS011;49296;48.188;11.566;2023-05-31T04:33:16;8.05;;;2.60;;
63201;SDS011;49296;48.188;11.566;2023-05-31T04:35:45;5.03;;;2.50;;
63201;SDS011;49296;48.188;11.566;2023-05-31T04:38:13;5.10;;;2.60;;
63201;SDS011;49296;48.188;11.566;2023-05-31T04:40:41;7.88;;;2.70;;
63201;SDS011;49296;48.188;11.566;2023-05-31T04:43:07;5.90;;;2.95;;
63201;SDS011;49296;48.188;11.566;2023-05-31T04:45:34;6.40;;;2.95;;
63201;SDS011;49296;48.188;11.566;2023-05-31T04:48:01;6.22;;;2.92;;
63201;SDS011;49296;48.188;11.566;2023-05-31T04:50:28;7.63;;;2.90;;
63201;SDS011;49296;48.188;11.566;2023-05-31T04:52:56;6.85;;;2.60;;
63201;SDS011;49296;48.188;11.566;2023-05-31T04:55:23;6.03;;;2.60;;
63201;SDS011;49296;48.188;11.566;2023-05-31T04:57:49;6.20;;;3.17;;
63201;SDS011;49296;48.188;11.566;2023-05-31T05:00:16;7.03;;;2.60;;
63201;SDS011;49296;48.188;11.566;2023-05-31T05:02:44;5.53;;;2.65;;
63201;SDS011;49296;48.188;11.566;2023-05-31T05:05:11;6.85;;;2.65;;
63201;SDS011;49296;48.188;11.566;2023-05-31T05:07:38;5.90;;;2.40;;
63201;SDS011;49296;48.188;11.566;2023-05-31T05:10:06;6.32;;;2.88;;
63201;SDS011;49296;48.188;11.566;2023-05-31T05:12:33;6.82;;;3.17;;
63201;SDS011;49296;48.188;11.566;2023-05-31T05:15:00;7.47;;;2.78;;
63201;SDS011;49296;48.188;11.566;2023-05-31T05:17:27;6.85;;;2.80;;
63201;SDS011;49296;48.188;11.566;2023-05-31T05:19:53;7.40;;;3.10;;
63201;SDS011;49296;48.188;11.566;2023-05-31T05:22:20;5.82;;;2.85;;
63201;SDS011;49296;48.188;11.566;2023-05-31T05:24:47;9.07;;;3.47;;
63201;SDS011;49296;48.188;11.566;2023-05-31T05:27:15;7.95;;;2.85;;
63201;SDS011;49296;48.188;11.566;2023-05-31T05:29:41;6.13;;;2.97;;
63201;SDS011;49296;48.188;11.566;2023-05-31T05:32:08;6.68;;;3.17;;
63201;SDS011;49296;48.188;11.566;2023-05-31T05:34:34;6.35;;;3.10;;
63201;SDS011;49296;48.188;11.566;2023-05-31T05:37:01;10.23;;;3.00;;
63201;SDS011;49296;48.188;11.566;2023-05-31T05:39:28;6.13;;;2.70;;
63201;SDS011;49296;48.188;11.566;2023-05-31T05:41:55;7.00;;;3.00;;
63201;SDS011;49296;48.188;11.566;2023-05-31T05:44:23;5.50;;;2.80;;
63201;SDS011;49296;48.188;11.566;2023-05-31T05:46:49;8.25;;;3.33;;
63201;SDS011;49296;48.188;11.566;2023-05-31T05:49:16;5.97;;;3.10;;
63201;SDS011;49296;48.188;11.566;2023-05-31T05:51:42;5.57;;;2.85;;
63201;SDS011;49296;48.188;11.566;2023-05-31T05:54:09;5.53;;;2.60;;
63201;SDS011;49296;48.188;11.566;2023-05-31T05:56:36;6.75;;;2.80;;
63201;SDS011;49296;48.188;11.566;2023-05-31T05:59:02;4.30;;;2.15;;
63201;SDS011;49296;48.188;11.566;2023-05-31T06:01:30;5.95;;;2.85;;
63201;SDS011;49296;48.188;11.566;2023-05-31T06:03:57;9.85;;;2.60;;
63201;SDS011;49296;48.188;11.566;2023-05-31T06:06:23;5.05;;;2.72;;
63201;SDS011;49296;48.188;11.566;2023-05-31T06:08:51;7.13;;;2.92;;
63201;SDS011;49296;48.188;11.566;2023-05-31T06:11:17;5.32;;;2.78;;
63201;SDS011;49296;48.188;11.566;2023-05-31T06:13:45;7.22;;;3.03;;
63201;SDS011;49296;48.188;11.566;2023-05-31T06:16:12;5.57;;;2.70;;
63201;SDS011;49296;48.188;11.566;2023-05-31T06:18:41;5.78;;;3.05;;
63201;SDS011;49296;48.188;11.566;2023-05-31T06:21:07;5.93;;;2.90;;
63201;SDS011;49296;48.188;11.566;2023-05-31T06:23:34;7.85;;;3.17;;
63201;SDS011;49296;48.188;11.566;2023-05-31T06:26:01;6.90;;;2.90;;
63201;SDS011;49296;48.188;11.566;2023-05-31T06:28:27;8.35;;;3.50;;
63201;SDS011;49296;48.188;11.566;2023-05-31T06:30:54;5.78;;;3.15;;
63201;SDS011;49296;48.188;11.566;2023-05-31T06:33:21;8.93;;;3.40;;
63201;SDS011;49296;48.188;11.566;2023-05-31T06:35:49;7.05;;;2.90;;
63201;SDS011;49296;48.188;11.566;2023-05-31T06:38:16;7.63;;;3.22;;
63201;SDS011;49296;48.188;11.566;2023-05-31T06:40:43;7.85;;;2.75;;
63201;SDS011;49296;48.188;11.566;2023-05-31T06:43:10;5.63;;;2.70;;
63201;SDS011;49296;48.188;11.566;2023-05-31T06:45:37;8.52;;;3.50;;
63201;SDS011;49296;48.188;11.566;2023-05-31T06:48:06;7.10;;;3.33;;
63201;SDS011;49296;48.188;11.566;2023-05-31T06:50:34;6.65;;;2.85;;
63201;SDS011;49296;48.188;11.566;2023-05-31T06:53:02;8.23;;;3.13;;
63201;SDS011;49296;48.188;11.566;2023-05-31T06:55:29;6.97;;;2.88;;
63201;SDS011;49296;48.188;11.566;2023-05-31T06:57:56;5.63;;;2.70;;
63201;SDS011;49296;48.188;11.566;2023-05-31T07:00:22;5.97;;;2.63;;
63201;SDS011;49296;48.188;11.566;2023-05-31T07:02:49;6.68;;;3.50;;
63201;SDS011;49296;48.188;11.566;2023-05-31T07:05:16;7.60;;;3.25;;
63201;SDS011;49296;48.188;11.566;2023-05-31T07:07:42;5.25;;;3.13;;
63201;SDS011;49296;48.188;11.566;2023-05-31T07:10:11;7.35;;;3.40;;
63201;SDS011;49296;48.188;11.566;2023-05-31T07:12:38;6.53;;;2.90;;
63201;SDS011;49296;48.188;11.566;2023-05-31T07:15:05;5.88;;;2.75;;
63201;SDS011;49296;48.188;11.566;2023-05-31T07:17:33;5.93;;;2.90;;
63201;SDS011;49296;48.188;11.566;2023-05-31T07:20:00;6.68;;;3.10;;
63201;SDS011;49296;48.188;11.566;2023-05-31T07:22:28;7.95;;;3.30;;
63201;SDS011;49296;48.188;11.566;2023-05-31T07:24:55;9.73;;;3.00;;
63201;SDS011;49296;48.188;11.566;2023-05-31T07:27:23;7.15;;;2.90;;
63201;SDS011;49296;48.188;11.566;2023-05-31T07:29:50;5.82;;;3.30;;
63201;SDS011;49296;48.188;11.566;2023-05-31T07:32:17;5.95;;;3.20;;
63201;SDS011;49296;48.188;11.566;2023-05-31T07:34:43;5.55;;;2.80;;
63201;SDS011;49296;48.188;11.566;2023-05-31T07:37:10;5.78;;;3.40;;
63201;SDS011;49296;48.188;11.566;2023-05-31T07:39:36;7.47;;;3.08;;
63201;SDS011;49296;48.188;11.566;2023-05-31T07:42:03;5.65;;;2.95;;
63201;SDS011;49296;48.188;11.566;2023-05-31T07:44:31;7.43;;;2.80;;
63201;SDS011;49296;48.188;11.566;2023-05-31T07:46:58;7.35;;;3.50;;
63201;SDS011;49296;48.188;11.566;2023-05-31T07:49:25;10.05;;;3.58;;
63201;SDS011;49296;48.188;11.566;2023-05-31T07:51:52;6.20;;;2.83;;
63201;SDS011;49296;48.188;11.566;2023-05-31T07:54:19;7.53;;;3.25;;
63201;SDS011;49296;48.188;11.566;2023-05-31T07:56:45;8.75;;;3.25;;
63201;SDS011;49296;48.188;11.566;2023-05-31T07:59:12;7.68;;;3.30;;
63201;SDS011;49296;48.188;11.566;2023-05-31T08:01:40;6.13;;;2.80;;
63201;SDS011;49296;48.188;11.566;2023-05-31T08:04:08;6.35;;;3.03;;
63201;SDS011;49296;48.188;11.566;2023-05-31T08:06:36;9.73;;;2.95;;
63201;SDS011;49296;48.188;11.566;2023-05-31T08:09:03;8.93;;;3.10;;
63201;SDS011;49296;48.188;11.566;2023-05-31T08:11:31;7.03;;;3.42;;
63201;SDS011;49296;48.188;11.566;2023-05-31T08:14:00;8.98;;;4.25;;
63201;SDS011;49296;48.188;11.566;2023-05-31T08:16:27;5.80;;;3.00;;
63201;SDS011;49296;48.188;11.566;2023-05-31T08:18:55;9.50;;;3.67;;
63201;SDS011;49296;48.188;11.566;2023-05-31T08:21:21;9.00;;;4.93;;
63201;SDS011;49296;48.188;11.566;2023-05-31T08:23:48;8.70;;;4.03;;
63201;SDS011;49296;48.188;11.566;2023-05-31T08:26:15;6.13;;;3.05;;
63201;SDS011;49296;48.188;11.566;2023-05-31T08:28:41;9.27;;;3.10;;
63201;SDS011;49296;48.188;11.566;2023-05-31T08:31:08;8.75;;;3.33;;
63201;SDS011;49296;48.188;11.566;2023-05-31T08:33:35;5.38;;;2.78;;
63201;SDS011;49296;48.188;11.566;2023-05-31T08:36:03;9.45;;;3.67;;
63201;SDS011;49296;48.188;11.566;2023-05-31T08:38:30;7.07;;;2.80;;
63201;SDS011;49296;48.188;11.566;2023-05-31T08:41:00;7.28;;;3.10;;
63201;SDS011;49296;48.188;11.566;2023-05-31T08:43:28;6.25;;;2.88;;
63201;SDS011;49296;48.188;11.566;2023-05-31T08:45:55;7.93;;;3.10;;
63201;SDS011;49296;48.188;11.566;2023-05-31T08:48:24;7.05;;;3.00;;
63201;SDS011;49296;48.188;11.566;2023-05-31T08:50:54;6.55;;;2.90;;
63201;SDS011;49296;48.188;11.566;2023-05-31T08:53:24;8.75;;;3.38;;
63201;SDS011;49296;48.188;11.566;2023-05-31T08:55:51;7.00;;;3.05;;
63201;SDS011;49296;48.188;11.566;2023-05-31T08:58:19;5.20;;;2.70;;
63201;SDS011;49296;48.188;11.566;2023-05-31T09:00:46;7.63;;;3.17;;
63201;SDS011;49296;48.188;11.566;2023-05-31T09:03:15;6.53;;;2.70;;
63201;SDS011;49296;48.188;11.566;2023-05-31T09:05:42;7.90;;;3.05;;
63201;SDS011;49296;48.188;11.566;2023-05-31T09:08:08;5.72;;;2.90;;
63201;SDS011;49296;48.188;11.566;2023-05-31T09:10:37;7.95;;;2.95;;
63201;SDS011;49296;48.188;11.566;2023-05-31T09:13:05;7.03;;;3.13;;
63201;SDS011;49296;48.188;11.566;2023-05-31T09:15:35;7.38;;;2.72;;
63201;SDS011;49296;48.188;11.566;2023-05-31T09:18:11;5.80;;;2.70;;
63201;SDS011;49296;48.188;11.566;2023-05-31T09:20:39;6.93;;;3.58;;
63201;SDS011;49296;48.188;11.566;2023-05-31T09:23:07;9.30;;;3.58;;
63201;SDS011;49296;48.188;11.566;2023-05-31T09:25:45;6.70;;;3.03;;
63201;SDS011;49296;48.188;11.566;2023-05-31T09:28:13;6.25;;;2.85;;
63201;SDS011;49296;48.188;11.566;2023-05-31T09:30:40;6.78;;;2.88;;
63201;SDS011;49296;48.188;11.566;2023-05-31T09:33:07;7.63;;;2.78;;
63201;SDS011;49296;48.188;11.566;2023-05-31T09:35:35;5.85;;;3.10;;
63201;SDS011;49296;48.188;11.566;2023-05-31T09:38:05;5.75;;;2.67;;
63201;SDS011;49296;48.188;11.566;2023-05-31T09:40:32;6.22;;;3.38;;
63201;SDS011;49296;48.188;11.566;2023-05-31T09:43:00;6.15;;;2.80;;
63201;SDS011;49296;48.188;11.566;2023-05-31T09:45:27;5.43;;;3.05;;
63201;SDS011;49296;48.188;11.566;2023-05-31T09:47:54;6.68;;;2.42;;
63201;SDS011;49296;48.188;11.566;2023-05-31T09:50:22;6.35;;;3.00;;
63201;SDS011;49296;48.188;11.566;2023-05-31T09:52:54;6.60;;;3.13;;
63201;SDS011;49296;48.188;11.566;2023-05-31T09:55:21;7.57;;;3.22;;
63201;SDS011;49296;48.188;11.566;2023-05-31T09:57:49;6.47;;;3.40;;
63201;SDS011;49296;48.188;11.566;2023-05-31T10:00:19;7.25;;;3.58;;
63201;SDS011;49296;48.188;11.566;2023-05-31T10:02:47;6.03;;;3.20;;
63201;SDS011;49296;48.188;11.566;2023-05-31T10:05:15;6.35;;;2.88;;
63201;SDS011;49296;48.188;11.566;2023-05-31T10:07:44;8.40;;;2.83;;
63201;SDS011;49296;48.188;11.566;2023-05-31T10:10:12;6.38;;;3.45;;
63201;SDS011;49296;48.188;11.566;2023-05-31T10:12:42;7.95;;;3.30;;
63201;SDS011;49296;48.188;11.566;2023-05-31T10:15:17;5.60;;;2.72;;
63201;SDS011;49296;48.188;11.566;2023-05-31T10:17:50;5.97;;;3.03;;
63201;SDS011;49296;48.188;11.566;2023-05-31T10:20:21;5.85;;;3.20;;
63201;SDS011;49296;48.188;11.566;2023-05-31T10:22:51;6.00;;;2.97;;
63201;SDS011;49296;48.188;11.566;2023-05-31T10:25:24;8.10;;;3.15;;
63201;SDS011;49296;48.188;11.566;2023-05-31T10:27:57;8.48;;;3.38;;
63201;SDS011;49296;48.188;11.566;2023-05-31T10:30:30;7.45;;;2.92;;
63201;SDS011;49296;48.188;11.566;2023-05-31T10:33:02;4.85;;;2.60;;
63201;SDS011;49296;48.188;11.566;2023-05-31T10:35:32;7.15;;;3.45;;
63201;SDS011;49296;48.188;11.566;2023-05-31T10:37:58;6.63;;;3.42;;
63201;SDS011;49296;48.188;11.566;2023-05-31T10:40:30;7.53;;;2.95;;
63201;SDS011;49296;48.188;11.566;2023-05-31T10:43:00;6.35;;;3.08;;
63201;SDS011;49296;48.188;11.566;2023-05-31T10:45:34;8.35;;;3.63;;
63201;SDS011;49296;48.188;11.566;2023-05-31T10:48:09;8.13;;;3.40;;
63201;SDS011;49296;48.188;11.566;2023-05-31T10:53:23;5.95;;;2.72;;
63201;SDS011;49296;48.188;11.566;2023-05-31T10:55:55;5.63;;;2.72;;
63201;SDS011;49296;48.188;11.566;2023-05-31T10:58:29;7.88;;;3.50;;
63201;SDS011;49296;48.188;11.566;2023-05-31T11:00:56;6.65;;;3.10;;
63201;SDS011;49296;48.188;11.566;2023-05-31T11:03:29;5.38;;;3.20;;
63201;SDS011;49296;48.188;11.566;2023-05-31T11:05:57;8.32;;;3.28;;
63201;SDS011;49296;48.188;11.566;2023-05-31T11:08:25;8.18;;;3.58;;
63201;SDS011;49296;48.188;11.566;2023-05-31T11:10:52;6.88;;;3.38;;
63201;SDS011;49296;48.188;11.566;2023-05-31T11:13:55;7.95;;;3.90;;
63201;SDS011;49296;48.188;11.566;2023-05-31T11:16:23;6.90;;;3.70;;
63201;SDS011;49296;48.188;11.566;2023-05-31T11:19:02;8.32;;;3.78;;
63201;SDS011;49296;48.188;11.566;2023-05-31T11:21:46;7.97;;;3.63;;
63201;SDS011;49296;48.188;11.566;2023-05-31T11:24:29;6.18;;;3.50;;
63201;SDS011;49296;48.188;11.566;2023-05-31T11:26:57;6.75;;;3.67;;
63201;SDS011;49296;48.188;11.566;2023-05-31T11:29:25;8.70;;;4.05;;
63201;SDS011;49296;48.188;11.566;2023-05-31T11:32:12;5.53;;;3.55;;
63201;SDS011;49296;48.188;11.566;2023-05-31T11:34:49;7.80;;;3.90;;
63201;SDS011;49296;48.188;11.566;2023-05-31T11:37:18;9.02;;;3.80;;
63201;SDS011;49296;48.188;11.566;2023-05-31T11:39:46;8.20;;;4.47;;
63201;SDS011;49296;48.188;11.566;2023-05-31T11:42:13;9.07;;;3.95;;
63201;SDS011;49296;48.188;11.566;2023-05-31T11:44:41;9.35;;;4.60;;
63201;SDS011;49296;48.188;11.566;2023-05-31T11:47:09;9.75;;;4.03;;
63201;SDS011;49296;48.188;11.566;2023-05-31T11:49:38;5.72;;;3.95;;
63201;SDS011;49296;48.188;11.566;2023-05-31T11:52:07;8.35;;;4.80;;
63201;SDS011;49296;48.188;11.566;2023-05-31T11:54:34;7.82;;;4.15;;
63201;SDS011;49296;48.188;11.566;2023-05-31T11:57:01;6.60;;;3.92;;
63201;SDS011;49296;48.188;11.566;2023-05-31T11:59:30;7.68;;;3.95;;
63201;SDS011;49296;48.188;11.566;2023-05-31T12:01:58;8.27;;;4.68;;
63201;SDS011;49296;48.188;11.566;2023-05-31T12:04:29;8.63;;;4.32;;
63201;SDS011;49296;48.188;11.566;2023-05-31T12:06:56;6.70;;;4.43;;
63201;SDS011;49296;48.188;11.566;2023-05-31T12:09:25;6.25;;;3.65;;
63201;SDS011;49296;48.188;11.566;2023-05-31T12:11:52;9.10;;;4.40;;
63201;SDS011;49296;48.188;11.566;2023-05-31T12:14:20;7.45;;;4.30;;
63201;SDS011;49296;48.188;11.566;2023-05-31T12:16:47;8.50;;;5.32;;
63201;SDS011;49296;48.188;11.566;2023-05-31T12:19:15;7.35;;;3.92;;
63201;SDS011;49296;48.188;11.566;2023-05-31T12:21:42;8.13;;;4.50;;
63201;SDS011;49296;48.188;11.566;2023-05-31T12:24:12;7.70;;;4.40;;
63201;SDS011;49296;48.188;11.566;2023-05-31T12:26:41;7.53;;;4.20;;
63201;SDS011;49296;48.188;11.566;2023-05-31T12:29:08;7.70;;;4.63;;
63201;SDS011;49296;48.188;11.566;2023-05-31T12:31:38;6.32;;;3.80;;
63201;SDS011;49296;48.188;11.566;2023-05-31T12:34:05;9.68;;;4.13;;
63201;SDS011;49296;48.188;11.566;2023-05-31T12:36:36;7.75;;;4.65;;
63201;SDS011;49296;48.188;11.566;2023-05-31T12:39:06;8.02;;;4.20;;
63201;SDS011;49296;48.188;11.566;2023-05-31T12:44:02;9.15;;;4.70;;
63201;SDS011;49296;48.188;11.566;2023-05-31T12:46:35;8.32;;;4.15;;
63201;SDS011;49296;48.188;11.566;2023-05-31T12:49:09;6.10;;;4.10;;
63201;SDS011;49296;48.188;11.566;2023-05-31T12:51:37;6.75;;;3.90;;
63201;SDS011;49296;48.188;11.566;2023-05-31T12:54:08;7.22;;;3.75;;
63201;SDS011;49296;48.188;11.566;2023-05-31T12:56:36;7.28;;;3.80;;
63201;SDS011;49296;48.188;11.566;2023-05-31T12:59:04;6.47;;;3.85;;
63201;SDS011;49296;48.188;11.566;2023-05-31T13:01:31;6.95;;;4.47;;
63201;SDS011;49296;48.188;11.566;2023-05-31T13:03:59;7.78;;;3.80;;
63201;SDS011;49296;48.188;11.566;2023-05-31T13:06:25;8.48;;;4.40;;
63201;SDS011;49296;48.188;11.566;2023-05-31T13:08:52;6.85;;;3.60;;
63201;SDS011;49296;48.188;11.566;2023-05-31T13:11:19;5.90;;;3.80;;
63201;SDS011;49296;48.188;11.566;2023-05-31T13:13:46;7.50;;;3.88;;
63201;SDS011;49296;48.188;11.566;2023-05-31T13:16:14;6.40;;;3.80;;
63201;SDS011;49296;48.188;11.566;2023-05-31T13:18:41;6.47;;;4.22;;
63201;SDS011;49296;48.188;11.566;2023-05-31T13:21:07;8.70;;;4.40;;
63201;SDS011;49296;48.188;11.566;2023-05-31T13:23:34;6.60;;;4.00;;
63201;SDS011;49296;48.188;11.566;2023-05-31T13:26:01;7.10;;;4.07;;
63201;SDS011;49296;48.188;11.566;2023-05-31T13:28:28;6.10;;;3.75;;
63201;SDS011;49296;48.188;11.566;2023-05-31T13:30:54;6.43;;;4.38;;
63201;SDS011;49296;48.188;11.566;2023-05-31T13:33:35;6.03;;;4.07;;
63201;SDS011;49296;48.188;11.566;2023-05-31T13:36:02;7.70;;;4.55;;
63201;SDS011;49296;48.188;11.566;2023-05-31T13:38:29;7.45;;;4.47;;
63201;SDS011;49296;48.188;11.566;2023-05-31T13:40:56;8.10;;;4.32;;
63201;SDS011;49296;48.188;11.566;2023-05-31T13:43:23;8.00;;;4.47;;
63201;SDS011;49296;48.188;11.566;2023-05-31T13:45:52;7.55;;;4.35;;
63201;SDS011;49296;48.188;11.566;2023-05-31T13:48:18;6.60;;;3.75;;
63201;SDS011;49296;48.188;11.566;2023-05-31T13:50:47;8.27;;;4.60;;
63201;SDS011;49296;48.188;11.566;2023-05-31T13:53:14;7.07;;;3.85;;
63201;SDS011;49296;48.188;11.566;2023-05-31T13:55:41;7.07;;;4.05;;
63201;SDS011;49296;48.188;11.566;2023-05-31T13:58:08;7.45;;;4.20;;
63201;SDS011;49296;48.188;11.566;2023-05-31T14:00:35;7.18;;;3.65;;
63201;SDS011;49296;48.188;11.566;2023-05-31T14:03:02;7.03;;;3.92;;
63201;SDS011;49296;48.188;11.566;2023-05-31T14:05:29;7.05;;;4.15;;
63201;SDS011;49296;48.188;11.566;2023-05-31T14:07:57;5.90;;;3.60;;
63201;SDS011;49296;48.188;11.566;2023-05-31T14:10:24;6.32;;;3.65;;
63201;SDS011;49296;48.188;11.566;2023-05-31T14:12:51;8.05;;;3.72;;
63201;SDS011;49296;48.188;11.566;2023-05-31T14:15:18;5.38;;;3.83;;
63201;SDS011;49296;48.188;11.566;2023-05-31T14:17:45;8.43;;;3.90;;
63201;SDS011;49296;48.188;11.566;2023-05-31T14:20:12;6.72;;;3.83;;
63201;SDS011;49296;48.188;11.566;2023-05-31T14:22:39;7.20;;;4.25;;
63201;SDS011;49296;48.188;11.566;2023-05-31T14:25:08;8.00;;;4.13;;
63201;SDS011;49296;48.188;11.566;2023-05-31T14:27:35;6.85;;;4.40;;
63201;SDS011;49296;48.188;11.566;2023-05-31T14:30:02;7.15;;;4.18;;
63201;SDS011;49296;48.188;11.566;2023-05-31T14:32:29;9.27;;;4.28;;
63201;SDS011;49296;48.188;11.566;2023-05-31T14:34:56;8.85;;;4.38;;
63201;SDS011;49296;48.188;11.566;2023-05-31T14:37:23;7.15;;;3.85;;
63201;SDS011;49296;48.188;11.566;2023-05-31T14:39:50;6.43;;;3.58;;
63201;SDS011;49296;48.188;11.566;2023-05-31T14:42:18;7.70;;;3.78;;
63201;SDS011;49296;48.188;11.566;2023-05-31T14:44:45;9.20;;;4.30;;
63201;SDS011;49296;48.188;11.566;2023-05-31T14:47:12;7.22;;;3.83;;
63201;SDS011;49296;48.188;11.566;2023-05-31T14:49:38;6.20;;;3.78;;